createdAt,value
2019-03-16T00:00:06.337Z,99.90
2019-03-16T00:02:35.850Z,99.90
2019-03-16T00:05:05.776Z,99.90
2019-03-16T00:07:38.114Z,99.90
2019-03-16T00:10:07.839Z,99.90
2019-03-16T00:12:37.306Z,99.90
2019-03-16T00:15:06.897Z,99.90
2019-03-16T00:17:36.475Z,99.90
2019-03-16T00:20:06.219Z,99.90
2019-03-16T00:22:35.964Z,99.90
2019-03-16T00:25:05.608Z,99.90
2019-03-16T00:27:35.470Z,99.90
2019-03-16T00:30:05.367Z,99.90
2019-03-16T00:32:34.828Z,99.90
2019-03-16T00:35:04.462Z,99.90
2019-03-16T00:37:34.275Z,99.90
2019-03-16T00:40:03.759Z,99.90
2019-03-16T00:42:33.508Z,99.90
2019-03-16T00:45:03.005Z,99.90
2019-03-16T00:47:33.514Z,99.90
2019-03-16T00:50:03.168Z,99.90
2019-03-16T00:52:32.632Z,99.90
2019-03-16T00:55:02.131Z,99.90
2019-03-16T00:57:31.962Z,99.90
2019-03-16T01:00:01.479Z,99.90
2019-03-16T01:02:32.884Z,99.90
2019-03-16T01:05:02.330Z,99.90
2019-03-16T01:07:31.839Z,99.90
2019-03-16T01:10:01.362Z,99.90
2019-03-16T01:12:30.892Z,99.90
2019-03-16T01:15:00.468Z,99.90
2019-03-16T01:17:30.267Z,99.90
2019-03-16T01:19:59.672Z,99.90
2019-03-16T01:22:29.150Z,99.90
2019-03-16T01:24:58.677Z,99.90
2019-03-16T01:27:28.318Z,99.90
2019-03-16T01:29:57.752Z,99.90
2019-03-16T01:32:39.761Z,99.90
2019-03-16T01:34:58.352Z,99.90
2019-03-16T01:37:27.888Z,99.90
2019-03-16T01:39:57.471Z,99.90
2019-03-16T01:42:26.933Z,99.90
2019-03-16T01:44:56.411Z,99.90
2019-03-16T01:47:26.167Z,99.90
2019-03-16T01:49:55.647Z,99.90
2019-03-16T01:52:25.123Z,99.90
2019-03-16T01:54:54.711Z,99.90
2019-03-16T01:57:24.178Z,99.90
2019-03-16T01:59:53.655Z,99.90
2019-03-16T02:02:23.365Z,99.90
2019-03-16T02:04:52.929Z,99.90
2019-03-16T02:07:22.430Z,99.90
2019-03-16T02:09:52.002Z,99.90
2019-03-16T02:12:21.463Z,99.90
2019-03-16T02:14:50.947Z,99.90
2019-03-16T02:17:21.149Z,99.90
2019-03-16T02:19:50.817Z,99.90
2019-03-16T02:22:20.274Z,99.90
2019-03-16T02:24:49.799Z,99.90
2019-03-16T02:27:19.480Z,99.90
2019-03-16T02:29:48.961Z,99.90
2019-03-16T02:32:18.784Z,99.90
2019-03-16T02:34:48.252Z,99.90
2019-03-16T02:37:17.710Z,99.90
2019-03-16T02:39:47.374Z,99.90
2019-03-16T02:42:16.885Z,99.90
2019-03-16T02:44:46.343Z,99.90
2019-03-16T02:47:15.807Z,99.90
2019-03-16T02:49:45.422Z,99.90
2019-03-16T02:52:14.886Z,99.90
2019-03-16T02:54:44.346Z,99.90
2019-03-16T02:57:14.074Z,99.90
2019-03-16T02:59:43.540Z,99.90
2019-03-16T03:02:13.026Z,99.70
2019-03-16T03:04:45.967Z,99.60
2019-03-16T03:07:13.975Z,99.60
2019-03-16T03:09:43.436Z,98.40
2019-03-16T03:12:13.190Z,99.10
2019-03-16T03:14:42.665Z,98.60
2019-03-16T03:17:12.121Z,97.30
2019-03-16T03:19:41.977Z,97.70
2019-03-16T03:22:11.445Z,98.30
2019-03-16T03:24:44.234Z,98.00
2019-03-16T03:27:12.052Z,98.30
2019-03-16T03:29:41.518Z,97.80
2019-03-16T03:32:11.219Z,98.20
2019-03-16T03:34:40.794Z,97.00
2019-03-16T03:37:10.330Z,98.00
2019-03-16T03:39:39.793Z,97.40
2019-03-16T03:42:09.307Z,97.60
2019-03-16T03:44:38.941Z,97.50
2019-03-16T03:47:08.453Z,97.60
2019-03-16T03:49:37.943Z,98.50
2019-03-16T03:52:07.867Z,99.30
2019-03-16T03:54:37.383Z,99.00
2019-03-16T03:57:06.950Z,99.00
2019-03-16T03:59:36.465Z,99.00
2019-03-16T04:02:05.941Z,99.10
2019-03-16T04:04:35.549Z,98.70
2019-03-16T04:07:05.022Z,98.90
2019-03-16T04:09:34.589Z,99.90
2019-03-16T04:12:04.368Z,99.70
2019-03-16T04:14:33.855Z,99.90
2019-03-16T04:17:03.397Z,99.90
2019-03-16T04:19:33.027Z,99.90
2019-03-16T04:22:02.961Z,99.90
2019-03-16T04:24:32.468Z,99.90
2019-03-16T04:27:15.146Z,99.90
2019-03-16T04:29:33.053Z,99.90
2019-03-16T04:32:02.566Z,99.90
2019-03-16T04:34:32.240Z,99.90
2019-03-16T04:37:01.707Z,99.90
2019-03-16T04:39:31.256Z,99.90
2019-03-16T04:42:00.776Z,99.90
2019-03-16T04:44:30.251Z,99.90
2019-03-16T04:46:59.777Z,99.90
2019-03-16T04:49:29.568Z,99.90
2019-03-16T04:51:59.584Z,99.90
2019-03-16T04:54:29.359Z,99.90
2019-03-16T04:56:59.149Z,99.90
2019-03-16T04:59:28.658Z,99.90
2019-03-16T05:01:58.483Z,99.70
2019-03-16T05:04:27.966Z,99.40
2019-03-16T05:06:59.137Z,99.50
2019-03-16T05:09:28.681Z,99.90
2019-03-16T05:11:58.358Z,99.90
2019-03-16T05:14:27.896Z,99.70
2019-03-16T05:16:57.764Z,99.90
2019-03-16T05:19:27.230Z,99.90
2019-03-16T05:21:56.740Z,99.90
2019-03-16T05:24:26.484Z,99.90
2019-03-16T05:26:55.957Z,99.90
2019-03-16T05:29:25.728Z,99.90
2019-03-16T05:31:55.222Z,99.90
2019-03-16T05:34:24.824Z,99.90
2019-03-16T05:36:56.071Z,99.90
2019-03-16T05:39:25.813Z,99.90
2019-03-16T05:41:55.313Z,99.90
2019-03-16T05:44:25.179Z,99.90
2019-03-16T05:46:54.661Z,99.90
2019-03-16T05:49:24.491Z,99.90
2019-03-16T05:51:54.025Z,99.90
2019-03-16T05:54:23.509Z,99.90
2019-03-16T05:56:53.093Z,99.90
2019-03-16T05:59:22.571Z,99.90
2019-03-16T06:01:52.077Z,99.90
2019-03-16T06:04:21.842Z,99.90
2019-03-16T06:06:51.371Z,99.90
2019-03-16T06:09:20.841Z,99.90
2019-03-16T06:11:50.429Z,99.90
2019-03-16T06:14:19.918Z,99.90
2019-03-16T06:16:49.403Z,99.90
2019-03-16T06:19:19.214Z,99.90
2019-03-16T06:21:48.667Z,99.90
2019-03-16T06:24:18.309Z,99.90
2019-03-16T06:26:47.862Z,99.90
2019-03-16T06:29:17.353Z,99.90
2019-03-16T06:31:47.151Z,99.70
2019-03-16T06:34:16.688Z,99.90
2019-03-16T06:36:46.179Z,99.90
2019-03-16T06:39:15.819Z,99.90
2019-03-16T06:41:45.360Z,99.90
2019-03-16T06:44:14.858Z,99.90
2019-03-16T06:46:44.393Z,99.90
2019-03-16T06:49:13.845Z,99.90
2019-03-16T06:51:43.369Z,99.30
2019-03-16T06:54:13.053Z,99.90
2019-03-16T06:56:42.522Z,99.50
2019-03-16T06:59:11.994Z,99.90
2019-03-16T07:01:41.631Z,99.60
2019-03-16T07:04:11.138Z,99.40
2019-03-16T07:06:40.611Z,99.90
2019-03-16T07:09:10.457Z,99.90
2019-03-16T07:11:40.008Z,99.90
2019-03-16T07:14:09.729Z,99.70
2019-03-16T07:16:39.223Z,99.80
2019-03-16T07:19:08.730Z,99.70
2019-03-16T07:21:38.258Z,99.90
2019-03-16T07:24:08.240Z,99.70
2019-03-16T07:26:37.824Z,99.70
2019-03-16T07:29:07.285Z,99.90
2019-03-16T07:31:36.770Z,99.90
2019-03-16T07:34:06.492Z,99.90
2019-03-16T07:36:36.316Z,99.90
2019-03-16T07:39:07.530Z,99.90
2019-03-16T07:41:37.087Z,99.90
2019-03-16T07:44:06.540Z,99.80
2019-03-16T07:46:35.971Z,99.90
2019-03-16T07:49:05.698Z,99.90
2019-03-16T07:51:35.172Z,99.20
2019-03-16T07:54:04.603Z,99.60
2019-03-16T07:56:34.340Z,99.10
2019-03-16T07:59:03.840Z,99.20
2019-03-16T08:01:33.292Z,98.90
2019-03-16T08:04:02.803Z,99.00
2019-03-16T08:06:33.533Z,98.80
2019-03-16T08:09:03.273Z,97.70
2019-03-16T08:11:32.702Z,98.00
2019-03-16T08:14:02.187Z,97.80
2019-03-16T08:16:31.637Z,98.40
2019-03-16T08:19:01.181Z,98.60
2019-03-16T08:21:30.646Z,98.40
2019-03-16T08:24:00.110Z,97.80
2019-03-16T08:26:29.624Z,97.30
2019-03-16T08:28:59.392Z,97.30
2019-03-16T08:31:29.434Z,98.30
2019-03-16T08:33:58.879Z,97.70
2019-03-16T08:36:28.382Z,97.20
2019-03-16T08:38:57.892Z,97.30
2019-03-16T08:41:27.360Z,97.20
2019-03-16T08:43:56.852Z,97.00
2019-03-16T08:46:26.665Z,97.60
2019-03-16T08:48:56.125Z,97.50
2019-03-16T08:51:25.852Z,97.30
2019-03-16T08:53:55.261Z,97.70
2019-03-16T08:56:24.683Z,97.30
2019-03-16T08:58:54.136Z,97.10
2019-03-16T09:01:23.574Z,97.60
2019-03-16T09:03:53.126Z,97.40
2019-03-16T09:06:22.568Z,97.90
2019-03-16T09:08:52.009Z,97.80
2019-03-16T09:11:21.862Z,98.00
2019-03-16T09:13:51.299Z,97.90
2019-03-16T09:16:21.065Z,97.20
2019-03-16T09:18:50.503Z,97.00
2019-03-16T09:21:19.953Z,96.90
2019-03-16T09:23:49.380Z,96.40
2019-03-16T09:26:18.943Z,96.40
2019-03-16T09:28:59.645Z,96.60
2019-03-16T09:31:38.616Z,96.90
2019-03-16T09:34:08.067Z,97.80
2019-03-16T09:36:37.557Z,97.60
2019-03-16T09:39:08.567Z,98.10
2019-03-16T09:41:38.059Z,98.00
2019-03-16T09:44:07.556Z,97.30
2019-03-16T09:46:37.137Z,97.00
2019-03-16T09:49:06.660Z,96.20
2019-03-16T09:51:36.099Z,95.90
2019-03-16T09:54:05.750Z,95.60
2019-03-16T09:56:35.395Z,94.80
2019-03-16T09:59:04.828Z,94.70
2019-03-16T10:01:34.466Z,94.40
2019-03-16T10:04:03.995Z,93.60
2019-03-16T10:06:33.482Z,93.30
2019-03-16T10:09:03.167Z,93.30
2019-03-16T10:11:32.788Z,92.80
2019-03-16T10:14:02.314Z,93.00
2019-03-16T10:16:31.767Z,92.90
2019-03-16T10:19:01.264Z,92.90
2019-03-16T10:21:30.719Z,92.60
2019-03-16T10:24:00.395Z,92.80
2019-03-16T10:26:29.857Z,92.70
2019-03-16T10:28:59.334Z,92.40
2019-03-16T10:31:28.922Z,92.80
2019-03-16T10:33:58.379Z,92.30
2019-03-16T10:36:27.879Z,92.60
2019-03-16T10:38:57.588Z,92.20
2019-03-16T10:41:27.043Z,92.70
2019-03-16T10:43:56.514Z,93.30
2019-03-16T10:46:26.024Z,92.90
2019-03-16T10:48:55.532Z,93.30
2019-03-16T10:51:27.609Z,93.40
2019-03-16T10:53:56.210Z,93.10
2019-03-16T10:56:25.692Z,92.40
2019-03-16T10:58:56.908Z,92.10
2019-03-16T11:01:26.613Z,92.40
2019-03-16T11:03:56.744Z,92.40
2019-03-16T11:06:26.172Z,92.70
2019-03-16T11:08:56.460Z,92.40
2019-03-16T11:11:26.425Z,92.30
2019-03-16T11:13:56.300Z,93.20
2019-03-16T11:16:25.825Z,92.90
2019-03-16T11:18:55.358Z,92.80
2019-03-16T11:21:24.818Z,92.90
2019-03-16T11:23:54.320Z,93.20
2019-03-16T11:26:23.792Z,93.10
2019-03-16T11:28:53.265Z,92.80
2019-03-16T11:31:22.867Z,92.70
2019-03-16T11:33:52.350Z,92.90
2019-03-16T11:36:21.816Z,93.10
2019-03-16T11:38:51.275Z,93.70
2019-03-16T11:41:20.722Z,92.90
2019-03-16T11:43:50.185Z,93.60
2019-03-16T11:46:19.667Z,93.20
2019-03-16T11:48:49.250Z,93.70
2019-03-16T11:51:18.714Z,94.10
2019-03-16T11:53:48.144Z,93.80
2019-03-16T11:56:18.534Z,93.80
2019-03-16T11:58:48.381Z,92.40
2019-03-16T12:01:17.901Z,92.90
2019-03-16T12:03:47.357Z,92.10
2019-03-16T12:06:17.046Z,93.20
2019-03-16T12:08:46.644Z,93.60
2019-03-16T12:11:16.376Z,94.40
2019-03-16T12:13:45.889Z,94.50
2019-03-16T12:16:15.354Z,94.20
2019-03-16T12:18:45.241Z,95.40
2019-03-16T12:21:14.753Z,98.30
2019-03-16T12:23:44.583Z,99.90
2019-03-16T12:26:14.083Z,99.90
2019-03-16T12:28:43.753Z,99.90
2019-03-16T12:31:13.228Z,99.90
2019-03-16T12:33:42.734Z,99.90
2019-03-16T12:36:12.290Z,99.90
2019-03-16T12:38:41.769Z,99.90
2019-03-16T12:41:11.219Z,99.90
2019-03-16T12:43:40.736Z,99.90
2019-03-16T12:46:10.470Z,99.80
2019-03-16T12:48:39.959Z,99.60
2019-03-16T12:51:09.481Z,97.90
2019-03-16T12:53:39.598Z,98.40
2019-03-16T12:56:09.311Z,97.90
2019-03-16T12:58:38.823Z,98.20
2019-03-16T13:01:08.661Z,95.90
2019-03-16T13:03:38.176Z,95.20
2019-03-16T13:06:07.629Z,96.10
2019-03-16T13:08:37.211Z,96.90
2019-03-16T13:11:07.991Z,98.50
2019-03-16T13:13:37.552Z,96.80
2019-03-16T13:16:07.027Z,97.40
2019-03-16T13:18:40.984Z,96.70
2019-03-16T13:21:10.449Z,96.70
2019-03-16T13:23:39.947Z,95.50
2019-03-16T13:26:09.597Z,94.60
2019-03-16T13:28:39.071Z,94.30
2019-03-16T13:31:08.602Z,94.60
2019-03-16T13:33:38.085Z,95.70
2019-03-16T13:36:07.789Z,95.60
2019-03-16T13:38:37.318Z,95.30
2019-03-16T13:41:06.754Z,95.30
2019-03-16T13:43:36.175Z,95.40
2019-03-16T13:46:05.635Z,95.20
2019-03-16T13:48:35.097Z,94.30
2019-03-16T13:51:04.543Z,96.40
2019-03-16T13:53:34.007Z,97.80
2019-03-16T13:56:03.911Z,98.30
2019-03-16T13:58:33.338Z,99.20
2019-03-16T14:01:02.789Z,99.90
2019-03-16T14:03:32.289Z,98.80
2019-03-16T14:06:02.047Z,97.60
2019-03-16T14:08:31.527Z,97.60
2019-03-16T14:11:01.006Z,95.70
2019-03-16T14:13:30.812Z,94.60
2019-03-16T14:16:00.273Z,94.70
2019-03-16T14:18:29.722Z,92.80
2019-03-16T14:20:59.332Z,90.90
2019-03-16T14:23:28.869Z,92.80
2019-03-16T14:25:58.332Z,94.40
2019-03-16T14:28:28.134Z,93.40
2019-03-16T14:30:57.825Z,93.90
2019-03-16T14:33:27.555Z,92.20
2019-03-16T14:35:57.057Z,92.10
2019-03-16T14:38:26.843Z,92.10
2019-03-16T14:40:56.259Z,90.90
2019-03-16T14:43:25.721Z,92.30
2019-03-16T14:45:55.223Z,92.40
2019-03-16T14:48:25.030Z,92.60
2019-03-16T14:50:54.944Z,94.60
2019-03-16T14:53:24.457Z,94.70
2019-03-16T14:55:56.253Z,93.90
2019-03-16T14:58:25.197Z,95.00
2019-03-16T15:00:54.716Z,94.90
2019-03-16T15:03:24.191Z,96.80
2019-03-16T15:05:53.668Z,98.60
2019-03-16T15:08:23.366Z,98.20
2019-03-16T15:10:52.798Z,99.60
2019-03-16T15:13:22.273Z,99.90
2019-03-16T15:15:51.823Z,99.90
2019-03-16T15:18:21.269Z,99.90
2019-03-16T15:20:50.763Z,99.90
2019-03-16T15:23:20.220Z,99.90
2019-03-16T15:25:49.685Z,99.90
2019-03-16T15:28:19.197Z,99.90
2019-03-16T15:30:50.975Z,99.90
2019-03-16T15:33:19.893Z,99.90
2019-03-16T15:35:49.375Z,99.90
2019-03-16T15:38:18.853Z,99.90
2019-03-16T15:40:48.338Z,99.40
2019-03-16T15:43:17.850Z,98.90
2019-03-16T15:45:47.381Z,98.80
2019-03-16T15:48:16.853Z,98.60
2019-03-16T15:50:46.360Z,98.80
2019-03-16T15:53:15.837Z,98.90
2019-03-16T15:55:45.410Z,99.20
2019-03-16T15:58:14.985Z,98.70
2019-03-16T16:00:44.456Z,99.30
2019-03-16T16:03:13.923Z,99.20
2019-03-16T16:05:43.424Z,99.20
2019-03-16T16:08:12.879Z,99.20
2019-03-16T16:10:42.389Z,99.90
2019-03-16T16:13:11.997Z,99.90
2019-03-16T16:15:41.446Z,99.60
2019-03-16T16:18:11.167Z,99.90
2019-03-16T16:20:40.732Z,99.70
2019-03-16T16:23:10.191Z,99.90
2019-03-16T16:25:39.915Z,99.50
2019-03-16T16:28:09.447Z,99.90
2019-03-16T16:30:38.905Z,99.50
2019-03-16T16:33:08.422Z,99.50
2019-03-16T16:35:37.942Z,99.90
2019-03-16T16:38:07.475Z,99.90
2019-03-16T16:40:37.387Z,99.50
2019-03-16T16:43:06.913Z,99.90
2019-03-16T16:45:36.506Z,99.80
2019-03-16T16:48:05.992Z,99.10
2019-03-16T16:50:35.564Z,99.60
2019-03-16T16:53:05.067Z,99.20
2019-03-16T16:55:34.547Z,98.70
2019-03-16T16:58:04.032Z,99.80
2019-03-16T17:00:33.567Z,99.90
2019-03-16T17:03:03.093Z,99.70
2019-03-16T17:05:32.593Z,99.70
2019-03-16T17:08:02.091Z,99.90
2019-03-16T17:10:31.899Z,99.80
2019-03-16T17:13:01.349Z,99.90
2019-03-16T17:15:30.863Z,99.90
2019-03-16T17:18:00.398Z,99.90
2019-03-16T17:20:29.864Z,99.90
2019-03-16T17:22:59.407Z,99.90
2019-03-16T17:25:28.998Z,99.90
2019-03-16T17:27:58.477Z,99.90
2019-03-16T17:30:28.003Z,99.90
2019-03-16T17:32:57.502Z,99.90
2019-03-16T17:35:26.937Z,99.90
2019-03-16T17:37:56.389Z,99.90
2019-03-16T17:40:25.976Z,99.90
2019-03-16T17:42:55.527Z,99.90
2019-03-16T17:45:25.050Z,99.90
2019-03-16T17:47:54.511Z,99.90
2019-03-16T17:50:23.940Z,99.90
2019-03-16T17:52:53.486Z,99.90
2019-03-16T17:55:22.973Z,99.90
2019-03-16T17:57:52.525Z,99.90
2019-03-16T18:00:22.023Z,99.90
2019-03-16T18:02:52.561Z,99.90
2019-03-16T18:05:22.663Z,99.90
2019-03-16T18:07:52.163Z,99.90
2019-03-16T18:10:22.077Z,99.90
2019-03-16T18:12:51.556Z,99.90
2019-03-16T18:15:21.051Z,99.90
2019-03-16T18:17:50.623Z,99.90
2019-03-16T18:20:20.136Z,99.90
2019-03-16T18:22:49.580Z,99.90
2019-03-16T18:25:19.223Z,99.90
2019-03-16T18:27:48.752Z,99.90
2019-03-16T18:30:18.230Z,99.90
2019-03-16T18:32:47.767Z,99.90
2019-03-16T18:35:17.214Z,99.90
2019-03-16T18:37:46.716Z,99.90
2019-03-16T18:40:16.316Z,99.90
2019-03-16T18:42:45.813Z,99.90
2019-03-16T18:45:16.149Z,99.90
2019-03-16T18:47:45.910Z,99.90
2019-03-16T18:50:15.359Z,99.90
2019-03-16T18:52:44.790Z,99.90
2019-03-16T18:55:14.399Z,99.90
2019-03-16T18:57:43.797Z,99.90
2019-03-16T19:00:14.237Z,99.90
2019-03-16T19:02:43.843Z,99.90
2019-03-16T19:05:13.274Z,99.90
2019-03-16T19:07:42.849Z,99.90
2019-03-16T19:10:12.342Z,99.90
2019-03-16T19:12:41.872Z,99.90
2019-03-16T19:15:12.943Z,99.90
2019-03-16T19:17:42.710Z,99.90
2019-03-16T19:20:12.957Z,99.90
2019-03-16T19:22:42.659Z,99.90
2019-03-16T19:25:13.152Z,99.90
2019-03-16T19:27:42.780Z,99.90
2019-03-16T19:30:13.973Z,99.90
2019-03-16T19:32:43.899Z,99.90
2019-03-16T19:35:13.540Z,99.90
2019-03-16T19:37:43.353Z,99.90
2019-03-16T19:40:13.023Z,99.90
2019-03-16T19:42:42.628Z,99.90
2019-03-16T19:45:12.650Z,99.90
2019-03-16T19:47:42.236Z,99.90
2019-03-16T19:50:12.514Z,99.90
2019-03-16T19:52:42.204Z,99.90
2019-03-16T19:55:12.395Z,99.90
2019-03-16T19:57:42.090Z,99.90
2019-03-16T20:00:13.135Z,99.90
2019-03-16T20:02:50.172Z,99.90
2019-03-16T20:05:14.399Z,99.90
2019-03-16T20:07:43.901Z,99.90
2019-03-16T20:10:14.034Z,99.90
2019-03-16T20:12:44.052Z,99.90
2019-03-16T20:15:14.023Z,99.90
2019-03-16T20:17:43.826Z,99.90
2019-03-16T20:20:13.829Z,99.90
2019-03-16T20:22:44.359Z,99.90
2019-03-16T20:25:14.430Z,99.90
2019-03-16T20:27:43.955Z,99.90
2019-03-16T20:30:14.136Z,99.90
2019-03-16T20:32:43.673Z,99.90
2019-03-16T20:35:13.655Z,99.90
2019-03-16T20:37:43.087Z,99.90
2019-03-16T20:40:13.087Z,99.90
2019-03-16T20:42:42.759Z,99.90
2019-03-16T20:45:12.939Z,99.90
2019-03-16T20:47:42.527Z,99.90
2019-03-16T20:50:12.481Z,99.90
2019-03-16T20:52:42.207Z,99.90
2019-03-16T20:55:11.824Z,99.90
2019-03-16T20:57:41.774Z,99.90
2019-03-16T21:00:12.073Z,99.90
2019-03-16T21:02:41.734Z,99.90
2019-03-16T21:05:11.576Z,99.90
2019-03-16T21:07:41.078Z,99.90
2019-03-16T21:10:10.717Z,99.90
2019-03-16T21:12:40.296Z,99.90
2019-03-16T21:15:10.418Z,99.90
2019-03-16T21:17:39.932Z,99.90
2019-03-16T21:20:10.631Z,99.90
2019-03-16T21:22:40.082Z,99.90
2019-03-16T21:25:10.350Z,99.90
2019-03-16T21:27:39.822Z,99.90
2019-03-16T21:30:11.558Z,99.90
2019-03-16T21:32:41.053Z,99.90
2019-03-16T21:35:11.260Z,99.90
2019-03-16T21:37:41.133Z,99.90
2019-03-16T21:40:10.776Z,99.90
2019-03-16T21:42:40.336Z,99.90
2019-03-16T21:45:10.507Z,99.90
2019-03-16T21:47:40.211Z,99.90
2019-03-16T21:50:10.280Z,99.90
2019-03-16T21:52:39.762Z,99.90
2019-03-16T21:55:09.395Z,99.90
2019-03-16T21:57:38.867Z,99.90
2019-03-16T22:00:10.124Z,99.90
2019-03-16T22:02:39.607Z,99.90
2019-03-16T22:05:09.185Z,99.90
2019-03-16T22:07:38.638Z,99.90
2019-03-16T22:10:08.264Z,99.90
2019-03-16T22:12:37.760Z,99.90
2019-03-16T22:15:07.835Z,99.90
2019-03-16T22:17:37.292Z,99.90
2019-03-16T22:20:08.501Z,99.90
2019-03-16T22:22:37.952Z,99.90
2019-03-16T22:25:07.638Z,99.90
2019-03-16T22:27:37.129Z,99.90
2019-03-16T22:30:06.927Z,99.90
2019-03-16T22:32:36.372Z,99.90
2019-03-16T22:35:08.915Z,99.90
2019-03-16T22:37:37.459Z,99.90
2019-03-16T22:40:07.085Z,99.90
2019-03-16T22:42:36.516Z,99.90
2019-03-16T22:45:06.170Z,99.90
2019-03-16T22:47:35.588Z,99.90
2019-03-16T22:50:05.182Z,99.90
2019-03-16T22:52:34.682Z,99.90
2019-03-16T22:55:04.403Z,99.90
2019-03-16T22:57:33.828Z,99.90
2019-03-16T23:00:03.354Z,99.90
2019-03-16T23:02:32.805Z,99.90
2019-03-16T23:05:02.249Z,99.90
2019-03-16T23:07:31.735Z,99.90
2019-03-16T23:10:01.180Z,99.90
2019-03-16T23:12:30.615Z,99.90
2019-03-16T23:15:00.345Z,99.90
2019-03-16T23:17:29.925Z,99.90
2019-03-16T23:19:59.374Z,99.90
2019-03-16T23:22:28.814Z,99.90
2019-03-16T23:24:58.271Z,99.90
2019-03-16T23:27:27.745Z,99.90
2019-03-16T23:29:57.184Z,99.90
2019-03-16T23:32:26.623Z,99.90
2019-03-16T23:34:56.099Z,99.90
2019-03-16T23:37:25.584Z,99.90
2019-03-16T23:39:55.104Z,99.90
2019-03-16T23:42:24.604Z,99.90
2019-03-16T23:44:54.040Z,99.90
2019-03-16T23:47:23.489Z,99.90
2019-03-16T23:49:52.926Z,99.90
2019-03-16T23:52:22.402Z,99.90
2019-03-16T23:54:51.925Z,99.90
2019-03-16T23:57:21.391Z,99.90
2019-03-16T23:59:51.114Z,99.90
